sensor_id;sensor_type;location;lat;lon;timestamp;P1;durP1;ratioP1;P2;durP2;ratioP2
4001;SDS011;2015;48.670;9.060;2022-12-07T00:00:10;15.87;;;11.70;;
4001;SDS011;2015;48.670;9.060;2022-12-07T00:02:42;13.77;;;10.33;;
4001;SDS011;2015;48.670;9.060;2022-12-07T00:05:14;13.83;;;10.40;;
4001;SDS011;2015;48.670;9.060;2022-12-07T00:07:46;12.70;;;10.70;;
4001;SDS011;2015;48.670;9.060;2022-12-07T00:10:17;12.27;;;9.63;;
4001;SDS011;2015;48.670;9.060;2022-12-07T00:12:49;12.87;;;10.37;;
4001;SDS011;2015;48.670;9.060;2022-12-07T00:15:21;12.93;;;9.33;;
4001;SDS011;2015;48.670;9.060;2022-12-07T00:17:53;13.27;;;9.90;;
4001;SDS011;2015;48.670;9.060;2022-12-07T00:20:25;13.33;;;11.13;;
4001;SDS011;2015;48.670;9.060;2022-12-07T00:22:57;15.83;;;9.73;;
4001;SDS011;2015;48.670;9.060;2022-12-07T00:25:29;12.27;;;9.67;;
4001;SDS011;2015;48.670;9.060;2022-12-07T00:28:01;10.00;;;8.57;;
4001;SDS011;2015;48.670;9.060;2022-12-07T00:30:33;15.00;;;9.67;;
4001;SDS011;2015;48.670;9.060;2022-12-07T00:33:05;10.73;;;9.70;;
4001;SDS011;2015;48.670;9.060;2022-12-07T00:35:36;13.53;;;9.70;;
4001;SDS011;2015;48.670;9.060;2022-12-07T00:38:08;14.60;;;11.20;;
4001;SDS011;2015;48.670;9.060;2022-12-07T00:40:40;12.00;;;10.03;;
4001;SDS011;2015;48.670;9.060;2022-12-07T00:43:12;14.40;;;8.97;;
4001;SDS011;2015;48.670;9.060;2022-12-07T00:45:43;9.93;;;8.97;;
4001;SDS011;2015;48.670;9.060;2022-12-07T00:48:15;14.27;;;9.13;;
4001;SDS011;2015;48.670;9.060;2022-12-07T00:50:47;10.87;;;9.40;;
4001;SDS011;2015;48.670;9.060;2022-12-07T00:53:20;15.90;;;10.60;;
4001;SDS011;2015;48.670;9.060;2022-12-07T00:55:51;14.57;;;11.17;;
4001;SDS011;2015;48.670;9.060;2022-12-07T00:58:29;13.13;;;9.97;;
4001;SDS011;2015;48.670;9.060;2022-12-07T01:01:01;12.67;;;9.53;;
4001;SDS011;2015;48.670;9.060;2022-12-07T01:03:35;14.40;;;10.20;;
4001;SDS011;2015;48.670;9.060;2022-12-07T01:06:07;10.47;;;9.37;;
4001;SDS011;2015;48.670;9.060;2022-12-07T01:08:39;13.35;;;10.77;;
4001;SDS011;2015;48.670;9.060;2022-12-07T01:11:12;13.80;;;9.93;;
4001;SDS011;2015;48.670;9.060;2022-12-07T01:13:46;12.60;;;10.17;;
4001;SDS011;2015;48.670;9.060;2022-12-07T01:16:20;14.20;;;11.70;;
4001;SDS011;2015;48.670;9.060;2022-12-07T01:18:54;17.60;;;11.07;;
4001;SDS011;2015;48.670;9.060;2022-12-07T01:21:29;13.60;;;10.43;;
4001;SDS011;2015;48.670;9.060;2022-12-07T01:24:06;16.93;;;10.80;;
4001;SDS011;2015;48.670;9.060;2022-12-07T01:26:41;13.60;;;10.77;;
4001;SDS011;2015;48.670;9.060;2022-12-07T01:29:12;13.97;;;10.77;;
4001;SDS011;2015;48.670;9.060;2022-12-07T01:31:44;14.43;;;11.00;;
4001;SDS011;2015;48.670;9.060;2022-12-07T01:34:19;16.73;;;11.40;;
4001;SDS011;2015;48.670;9.060;2022-12-07T01:36:51;13.90;;;11.07;;
4001;SDS011;2015;48.670;9.060;2022-12-07T01:39:23;17.90;;;11.00;;
4001;SDS011;2015;48.670;9.060;2022-12-07T01:41:55;14.80;;;10.60;;
4001;SDS011;2015;48.670;9.060;2022-12-07T01:44:28;14.67;;;11.67;;
4001;SDS011;2015;48.670;9.060;2022-12-07T01:47:02;15.57;;;10.43;;
4001;SDS011;2015;48.670;9.060;2022-12-07T01:52:11;13.93;;;11.20;;
4001;SDS011;2015;48.670;9.060;2022-12-07T01:54:54;13.90;;;10.03;;
4001;SDS011;2015;48.670;9.060;2022-12-07T01:57:35;17.40;;;10.60;;
4001;SDS011;2015;48.670;9.060;2022-12-07T02:00:11;11.80;;;10.60;;
4001;SDS011;2015;48.670;9.060;2022-12-07T02:02:54;16.37;;;12.00;;
4001;SDS011;2015;48.670;9.060;2022-12-07T02:05:31;16.57;;;12.63;;
4001;SDS011;2015;48.670;9.060;2022-12-07T02:08:04;17.20;;;12.30;;
4001;SDS011;2015;48.670;9.060;2022-12-07T02:10:36;14.40;;;11.00;;
4001;SDS011;2015;48.670;9.060;2022-12-07T02:13:42;16.70;;;11.03;;
4001;SDS011;2015;48.670;9.060;2022-12-07T02:16:14;14.17;;;11.57;;
4001;SDS011;2015;48.670;9.060;2022-12-07T02:19:07;17.43;;;11.13;;
4001;SDS011;2015;48.670;9.060;2022-12-07T02:38:02;18.30;;;11.30;;
4001;SDS011;2015;48.670;9.060;2022-12-07T02:40:44;16.63;;;10.90;;
4001;SDS011;2015;48.670;9.060;2022-12-07T02:43:30;13.50;;;10.80;;
4001;SDS011;2015;48.670;9.060;2022-12-07T02:46:08;12.63;;;10.07;;
4001;SDS011;2015;48.670;9.060;2022-12-07T02:48:44;13.47;;;11.23;;
4001;SDS011;2015;48.670;9.060;2022-12-07T02:51:17;14.00;;;10.77;;
4001;SDS011;2015;48.670;9.060;2022-12-07T02:53:50;15.00;;;11.20;;
4001;SDS011;2015;48.670;9.060;2022-12-07T02:59:17;17.37;;;12.20;;
4001;SDS011;2015;48.670;9.060;2022-12-07T03:02:03;18.20;;;10.60;;
4001;SDS011;2015;48.670;9.060;2022-12-07T03:08:16;15.50;;;10.03;;
4001;SDS011;2015;48.670;9.060;2022-12-07T03:11:05;16.40;;;10.10;;
4001;SDS011;2015;48.670;9.060;2022-12-07T03:13:50;13.50;;;10.47;;
4001;SDS011;2015;48.670;9.060;2022-12-07T03:19:17;12.23;;;9.70;;
4001;SDS011;2015;48.670;9.060;2022-12-07T03:21:56;10.63;;;9.40;;
4001;SDS011;2015;48.670;9.060;2022-12-07T03:24:34;16.00;;;10.87;;
4001;SDS011;2015;48.670;9.060;2022-12-07T03:27:24;11.87;;;9.93;;
4001;SDS011;2015;48.670;9.060;2022-12-07T03:30:03;16.30;;;11.57;;
4001;SDS011;2015;48.670;9.060;2022-12-07T03:32:45;14.87;;;11.20;;
4001;SDS011;2015;48.670;9.060;2022-12-07T03:43:40;14.13;;;11.43;;
4001;SDS011;2015;48.670;9.060;2022-12-07T03:52:03;11.77;;;9.63;;
4001;SDS011;2015;48.670;9.060;2022-12-07T03:54:59;15.63;;;10.60;;
4001;SDS011;2015;48.670;9.060;2022-12-07T03:57:41;14.30;;;10.23;;
4001;SDS011;2015;48.670;9.060;2022-12-07T04:00:16;15.20;;;12.60;;
4001;SDS011;2015;48.670;9.060;2022-12-07T04:02:51;14.67;;;10.60;;
4001;SDS011;2015;48.670;9.060;2022-12-07T04:05:26;12.33;;;10.67;;
4001;SDS011;2015;48.670;9.060;2022-12-07T04:07:59;14.90;;;9.20;;
4001;SDS011;2015;48.670;9.060;2022-12-07T04:10:32;16.80;;;11.77;;
4001;SDS011;2015;48.670;9.060;2022-12-07T04:13:03;17.80;;;10.30;;
4001;SDS011;2015;48.670;9.060;2022-12-07T04:15:35;14.10;;;11.37;;
4001;SDS011;2015;48.670;9.060;2022-12-07T04:18:07;15.97;;;10.63;;
4001;SDS011;2015;48.670;9.060;2022-12-07T04:20:39;13.10;;;10.73;;
4001;SDS011;2015;48.670;9.060;2022-12-07T04:23:10;17.90;;;11.27;;
4001;SDS011;2015;48.670;9.060;2022-12-07T04:25:43;12.03;;;9.77;;
4001;SDS011;2015;48.670;9.060;2022-12-07T04:28:14;13.60;;;10.07;;
4001;SDS011;2015;48.670;9.060;2022-12-07T04:30:46;16.17;;;10.53;;
4001;SDS011;2015;48.670;9.060;2022-12-07T04:33:18;16.00;;;10.50;;
4001;SDS011;2015;48.670;9.060;2022-12-07T04:35:50;16.80;;;9.43;;
4001;SDS011;2015;48.670;9.060;2022-12-07T04:38:21;12.27;;;9.77;;
4001;SDS011;2015;48.670;9.060;2022-12-07T04:40:53;12.97;;;9.33;;
4001;SDS011;2015;48.670;9.060;2022-12-07T04:43:25;13.82;;;10.43;;
4001;SDS011;2015;48.670;9.060;2022-12-07T04:45:57;18.37;;;10.53;;
4001;SDS011;2015;48.670;9.060;2022-12-07T04:48:29;14.57;;;9.63;;
4001;SDS011;2015;48.670;9.060;2022-12-07T04:51:02;11.50;;;9.00;;
4001;SDS011;2015;48.670;9.060;2022-12-07T04:53:34;14.20;;;9.93;;
4001;SDS011;2015;48.670;9.060;2022-12-07T04:56:06;14.37;;;11.53;;
4001;SDS011;2015;48.670;9.060;2022-12-07T04:58:38;13.80;;;10.00;;
4001;SDS011;2015;48.670;9.060;2022-12-07T05:01:10;13.10;;;10.23;;
4001;SDS011;2015;48.670;9.060;2022-12-07T05:03:42;14.00;;;10.20;;
4001;SDS011;2015;48.670;9.060;2022-12-07T05:06:14;13.00;;;9.00;;
4001;SDS011;2015;48.670;9.060;2022-12-07T05:08:46;10.27;;;9.23;;
4001;SDS011;2015;48.670;9.060;2022-12-07T05:11:18;19.00;;;11.40;;
4001;SDS011;2015;48.670;9.060;2022-12-07T05:14:16;17.30;;;11.07;;
4001;SDS011;2015;48.670;9.060;2022-12-07T05:16:50;11.77;;;9.90;;
4001;SDS011;2015;48.670;9.060;2022-12-07T05:19:22;15.00;;;10.90;;
4001;SDS011;2015;48.670;9.060;2022-12-07T05:21:54;12.50;;;9.93;;
4001;SDS011;2015;48.670;9.060;2022-12-07T05:24:26;10.23;;;9.10;;
4001;SDS011;2015;48.670;9.060;2022-12-07T05:26:57;15.57;;;10.63;;
4001;SDS011;2015;48.670;9.060;2022-12-07T05:29:29;13.90;;;11.90;;
4001;SDS011;2015;48.670;9.060;2022-12-07T05:32:01;13.30;;;10.20;;
4001;SDS011;2015;48.670;9.060;2022-12-07T05:34:33;15.93;;;9.93;;
4001;SDS011;2015;48.670;9.060;2022-12-07T05:37:04;18.75;;;12.40;;
4001;SDS011;2015;48.670;9.060;2022-12-07T05:39:36;14.90;;;11.00;;
4001;SDS011;2015;48.670;9.060;2022-12-07T05:42:11;13.90;;;9.97;;
4001;SDS011;2015;48.670;9.060;2022-12-07T05:44:44;17.80;;;11.53;;
4001;SDS011;2015;48.670;9.060;2022-12-07T05:47:17;14.50;;;11.47;;
4001;SDS011;2015;48.670;9.060;2022-12-07T05:49:48;12.80;;;10.70;;
4001;SDS011;2015;48.670;9.060;2022-12-07T05:52:20;15.37;;;9.97;;
4001;SDS011;2015;48.670;9.060;2022-12-07T05:54:53;13.70;;;9.40;;
4001;SDS011;2015;48.670;9.060;2022-12-07T05:57:24;12.30;;;9.57;;
4001;SDS011;2015;48.670;9.060;2022-12-07T05:59:56;13.20;;;10.17;;
4001;SDS011;2015;48.670;9.060;2022-12-07T06:02:28;13.07;;;9.20;;
4001;SDS011;2015;48.670;9.060;2022-12-07T06:05:00;18.60;;;11.43;;
4001;SDS011;2015;48.670;9.060;2022-12-07T06:07:32;15.68;;;12.07;;
4001;SDS011;2015;48.670;9.060;2022-12-07T06:10:04;15.07;;;10.33;;
4001;SDS011;2015;48.670;9.060;2022-12-07T06:12:36;14.10;;;9.63;;
4001;SDS011;2015;48.670;9.060;2022-12-07T06:15:10;14.60;;;9.33;;
4001;SDS011;2015;48.670;9.060;2022-12-07T06:17:44;14.23;;;9.40;;
4001;SDS011;2015;48.670;9.060;2022-12-07T06:20:15;10.97;;;8.83;;
4001;SDS011;2015;48.670;9.060;2022-12-07T06:22:47;23.07;;;10.73;;
4001;SDS011;2015;48.670;9.060;2022-12-07T06:25:19;13.00;;;9.53;;
4001;SDS011;2015;48.670;9.060;2022-12-07T06:27:51;15.00;;;9.30;;
4001;SDS011;2015;48.670;9.060;2022-12-07T06:30:22;12.60;;;9.40;;
4001;SDS011;2015;48.670;9.060;2022-12-07T06:32:54;14.33;;;10.07;;
4001;SDS011;2015;48.670;9.060;2022-12-07T06:35:26;12.90;;;10.00;;
4001;SDS011;2015;48.670;9.060;2022-12-07T06:37:58;13.73;;;10.10;;
4001;SDS011;2015;48.670;9.060;2022-12-07T06:40:29;15.70;;;11.03;;
4001;SDS011;2015;48.670;9.060;2022-12-07T06:43:01;16.70;;;11.20;;
4001;SDS011;2015;48.670;9.060;2022-12-07T06:45:33;15.57;;;11.53;;
4001;SDS011;2015;48.670;9.060;2022-12-07T06:48:05;16.40;;;11.23;;
4001;SDS011;2015;48.670;9.060;2022-12-07T06:50:37;15.30;;;11.10;;
4001;SDS011;2015;48.670;9.060;2022-12-07T06:53:09;14.17;;;11.50;;
4001;SDS011;2015;48.670;9.060;2022-12-07T06:55:40;13.93;;;11.00;;
4001;SDS011;2015;48.670;9.060;2022-12-07T06:58:12;13.73;;;11.13;;
4001;SDS011;2015;48.670;9.060;2022-12-07T07:00:44;14.98;;;10.73;;
4001;SDS011;2015;48.670;9.060;2022-12-07T07:03:18;16.47;;;11.50;;
4001;SDS011;2015;48.670;9.060;2022-12-07T07:05:50;15.73;;;11.30;;
4001;SDS011;2015;48.670;9.060;2022-12-07T07:08:22;16.13;;;11.97;;
4001;SDS011;2015;48.670;9.060;2022-12-07T07:10:54;14.83;;;11.07;;
4001;SDS011;2015;48.670;9.060;2022-12-07T07:13:26;17.20;;;12.53;;
4001;SDS011;2015;48.670;9.060;2022-12-07T07:15:59;15.70;;;11.57;;
4001;SDS011;2015;48.670;9.060;2022-12-07T07:18:30;19.23;;;12.57;;
4001;SDS011;2015;48.670;9.060;2022-12-07T07:21:02;15.67;;;10.60;;
4001;SDS011;2015;48.670;9.060;2022-12-07T07:23:34;13.70;;;10.47;;
4001;SDS011;2015;48.670;9.060;2022-12-07T07:26:06;16.52;;;10.10;;
4001;SDS011;2015;48.670;9.060;2022-12-07T07:28:38;17.33;;;11.40;;
4001;SDS011;2015;48.670;9.060;2022-12-07T07:31:10;14.93;;;10.07;;
4001;SDS011;2015;48.670;9.060;2022-12-07T07:33:42;15.47;;;11.10;;
4001;SDS011;2015;48.670;9.060;2022-12-07T07:36:13;16.77;;;11.07;;
4001;SDS011;2015;48.670;9.060;2022-12-07T07:38:45;15.13;;;11.80;;
4001;SDS011;2015;48.670;9.060;2022-12-07T07:41:17;16.07;;;11.40;;
4001;SDS011;2015;48.670;9.060;2022-12-07T07:43:49;17.80;;;11.90;;
4001;SDS011;2015;48.670;9.060;2022-12-07T07:46:20;17.43;;;11.23;;
4001;SDS011;2015;48.670;9.060;2022-12-07T07:48:52;21.40;;;11.83;;
4001;SDS011;2015;48.670;9.060;2022-12-07T07:51:24;18.33;;;11.77;;
4001;SDS011;2015;48.670;9.060;2022-12-07T07:53:56;17.80;;;11.07;;
4001;SDS011;2015;48.670;9.060;2022-12-07T07:56:28;16.80;;;11.73;;
4001;SDS011;2015;48.670;9.060;2022-12-07T07:58:59;24.93;;;16.10;;
4001;SDS011;2015;48.670;9.060;2022-12-07T08:01:31;28.93;;;16.20;;
4001;SDS011;2015;48.670;9.060;2022-12-07T08:04:03;16.43;;;11.40;;
4001;SDS011;2015;48.670;9.060;2022-12-07T08:06:35;18.43;;;11.70;;
4001;SDS011;2015;48.670;9.060;2022-12-07T08:09:07;14.00;;;10.30;;
4001;SDS011;2015;48.670;9.060;2022-12-07T08:11:39;11.57;;;9.47;;
4001;SDS011;2015;48.670;9.060;2022-12-07T08:14:11;13.43;;;9.03;;
4001;SDS011;2015;48.670;9.060;2022-12-07T08:16:42;16.80;;;11.45;;
4001;SDS011;2015;48.670;9.060;2022-12-07T08:19:14;12.40;;;10.50;;
4001;SDS011;2015;48.670;9.060;2022-12-07T08:21:46;16.53;;;11.97;;
4001;SDS011;2015;48.670;9.060;2022-12-07T08:24:18;13.37;;;10.13;;
4001;SDS011;2015;48.670;9.060;2022-12-07T08:26:50;17.10;;;11.80;;
4001;SDS011;2015;48.670;9.060;2022-12-07T08:29:22;14.90;;;10.70;;
4001;SDS011;2015;48.670;9.060;2022-12-07T08:31:54;13.07;;;9.80;;
4001;SDS011;2015;48.670;9.060;2022-12-07T08:34:26;13.20;;;10.20;;
4001;SDS011;2015;48.670;9.060;2022-12-07T08:36:58;11.20;;;9.07;;
4001;SDS011;2015;48.670;9.060;2022-12-07T08:39:30;12.10;;;8.47;;
4001;SDS011;2015;48.670;9.060;2022-12-07T08:42:03;11.03;;;8.83;;
4001;SDS011;2015;48.670;9.060;2022-12-07T08:44:34;9.67;;;8.17;;
4001;SDS011;2015;48.670;9.060;2022-12-07T08:47:06;10.40;;;7.93;;
4001;SDS011;2015;48.670;9.060;2022-12-07T08:49:41;10.70;;;7.40;;
4001;SDS011;2015;48.670;9.060;2022-12-07T08:52:16;8.43;;;7.60;;
4001;SDS011;2015;48.670;9.060;2022-12-07T08:54:48;9.93;;;7.17;;
4001;SDS011;2015;48.670;9.060;2022-12-07T08:57:20;8.63;;;6.90;;
4001;SDS011;2015;48.670;9.060;2022-12-07T08:59:52;9.20;;;7.57;;
4001;SDS011;2015;48.670;9.060;2022-12-07T09:02:24;12.30;;;8.00;;
4001;SDS011;2015;48.670;9.060;2022-12-07T09:04:56;13.73;;;8.00;;
4001;SDS011;2015;48.670;9.060;2022-12-07T09:07:28;11.00;;;7.60;;
4001;SDS011;2015;48.670;9.060;2022-12-07T09:10:03;11.80;;;7.20;;
4001;SDS011;2015;48.670;9.060;2022-12-07T09:12:36;9.00;;;7.43;;
4001;SDS011;2015;48.670;9.060;2022-12-07T09:15:07;9.80;;;7.90;;
4001;SDS011;2015;48.670;9.060;2022-12-07T09:17:39;9.53;;;8.57;;
4001;SDS011;2015;48.670;9.060;2022-12-07T09:20:11;8.17;;;7.37;;
4001;SDS011;2015;48.670;9.060;2022-12-07T09:22:43;9.17;;;6.57;;
4001;SDS011;2015;48.670;9.060;2022-12-07T09:25:15;9.07;;;7.50;;
4001;SDS011;2015;48.670;9.060;2022-12-07T09:27:47;10.10;;;7.70;;
4001;SDS011;2015;48.670;9.060;2022-12-07T09:30:19;8.77;;;7.20;;
4001;SDS011;2015;48.670;9.060;2022-12-07T09:32:52;10.60;;;6.93;;
4001;SDS011;2015;48.670;9.060;2022-12-07T09:35:25;9.93;;;8.23;;
4001;SDS011;2015;48.670;9.060;2022-12-07T09:37:56;12.47;;;8.57;;
4001;SDS011;2015;48.670;9.060;2022-12-07T09:40:28;12.73;;;8.47;;
4001;SDS011;2015;48.670;9.060;2022-12-07T09:43:00;8.53;;;7.13;;
4001;SDS011;2015;48.670;9.060;2022-12-07T09:45:34;8.80;;;7.50;;
4001;SDS011;2015;48.670;9.060;2022-12-07T09:48:12;11.90;;;7.00;;
4001;SDS011;2015;48.670;9.060;2022-12-07T09:50:50;10.47;;;7.63;;
4001;SDS011;2015;48.670;9.060;2022-12-07T09:53:27;9.70;;;7.83;;
4001;SDS011;2015;48.670;9.060;2022-12-07T09:56:01;11.53;;;7.20;;
4001;SDS011;2015;48.670;9.060;2022-12-07T09:58:33;11.10;;;8.17;;
4001;SDS011;2015;48.670;9.060;2022-12-07T10:01:09;7.67;;;6.80;;
4001;SDS011;2015;48.670;9.060;2022-12-07T10:03:54;11.00;;;7.10;;
4001;SDS011;2015;48.670;9.060;2022-12-07T10:06:30;9.17;;;7.50;;
4001;SDS011;2015;48.670;9.060;2022-12-07T10:09:07;7.70;;;7.00;;
4001;SDS011;2015;48.670;9.060;2022-12-07T10:15:16;33.37;;;18.23;;
4001;SDS011;2015;48.670;9.060;2022-12-07T10:17:41;37.83;;;20.17;;
4001;SDS011;2015;48.670;9.060;2022-12-07T10:20:22;36.73;;;20.80;;
4001;SDS011;2015;48.670;9.060;2022-12-07T10:22:59;7.17;;;6.60;;
4001;SDS011;2015;48.670;9.060;2022-12-07T10:25:36;11.53;;;7.67;;
4001;SDS011;2015;48.670;9.060;2022-12-07T10:28:14;8.50;;;7.30;;
4001;SDS011;2015;48.670;9.060;2022-12-07T10:33:32;12.47;;;7.60;;
4001;SDS011;2015;48.670;9.060;2022-12-07T10:39:11;8.60;;;7.20;;
4001;SDS011;2015;48.670;9.060;2022-12-07T10:44:47;6.93;;;6.30;;
4001;SDS011;2015;48.670;9.060;2022-12-07T10:47:23;9.00;;;6.80;;
4001;SDS011;2015;48.670;9.060;2022-12-07T10:50:26;7.90;;;7.10;;
4001;SDS011;2015;48.670;9.060;2022-12-07T10:53:47;10.13;;;7.27;;
4001;SDS011;2015;48.670;9.060;2022-12-07T11:06:05;7.82;;;5.82;;
4001;SDS011;2015;48.670;9.060;2022-12-07T11:17:32;14.60;;;9.47;;
4001;SDS011;2015;48.670;9.060;2022-12-07T11:20:29;14.23;;;10.10;;
4001;SDS011;2015;48.670;9.060;2022-12-07T11:29:03;22.73;;;14.70;;
4001;SDS011;2015;48.670;9.060;2022-12-07T11:31:51;9.40;;;8.50;;
4001;SDS011;2015;48.670;9.060;2022-12-07T11:37:40;8.60;;;7.83;;
4001;SDS011;2015;48.670;9.060;2022-12-07T11:40:28;12.10;;;6.10;;
4001;SDS011;2015;48.670;9.060;2022-12-07T11:46:05;7.80;;;6.73;;
4001;SDS011;2015;48.670;9.060;2022-12-07T11:48:46;5.73;;;5.23;;
4001;SDS011;2015;48.670;9.060;2022-12-07T11:51:20;8.83;;;7.93;;
4001;SDS011;2015;48.670;9.060;2022-12-07T11:53:58;10.13;;;7.27;;
4001;SDS011;2015;48.670;9.060;2022-12-07T11:56:34;6.37;;;5.87;;
4001;SDS011;2015;48.670;9.060;2022-12-07T11:59:11;11.18;;;6.78;;
4001;SDS011;2015;48.670;9.060;2022-12-07T12:01:57;7.20;;;6.60;;
4001;SDS011;2015;48.670;9.060;2022-12-07T12:05:02;6.57;;;5.97;;
4001;SDS011;2015;48.670;9.060;2022-12-07T12:07:45;7.17;;;6.57;;
4001;SDS011;2015;48.670;9.060;2022-12-07T12:10:52;6.67;;;6.07;;
4001;SDS011;2015;48.670;9.060;2022-12-07T12:22:20;9.93;;;6.00;;
4001;SDS011;2015;48.670;9.060;2022-12-07T12:24:55;6.43;;;5.80;;
4001;SDS011;2015;48.670;9.060;2022-12-07T12:27:32;6.13;;;5.40;;
4001;SDS011;2015;48.670;9.060;2022-12-07T12:30:23;7.03;;;5.47;;
4001;SDS011;2015;48.670;9.060;2022-12-07T12:33:19;5.93;;;5.43;;
4001;SDS011;2015;48.670;9.060;2022-12-07T12:36:16;7.00;;;6.40;;
4001;SDS011;2015;48.670;9.060;2022-12-07T12:46:52;6.17;;;5.57;;
4001;SDS011;2015;48.670;9.060;2022-12-07T12:49:38;13.13;;;7.10;;
4001;SDS011;2015;48.670;9.060;2022-12-07T12:54:59;5.93;;;5.43;;
4001;SDS011;2015;48.670;9.060;2022-12-07T12:57:43;6.00;;;5.33;;
4001;SDS011;2015;48.670;9.060;2022-12-07T13:02:55;6.80;;;5.90;;
4001;SDS011;2015;48.670;9.060;2022-12-07T13:05:30;5.17;;;4.77;;
4001;SDS011;2015;48.670;9.060;2022-12-07T13:08:17;5.30;;;4.90;;
4001;SDS011;2015;48.670;9.060;2022-12-07T13:10:52;10.17;;;5.80;;
4001;SDS011;2015;48.670;9.060;2022-12-07T13:18:40;5.60;;;5.10;;
4001;SDS011;2015;48.670;9.060;2022-12-07T13:29:19;5.53;;;5.20;;
4001;SDS011;2015;48.670;9.060;2022-12-07T13:31:52;4.57;;;4.27;;
4001;SDS011;2015;48.670;9.060;2022-12-07T13:37:29;8.03;;;5.10;;
4001;SDS011;2015;48.670;9.060;2022-12-07T13:40:17;5.63;;;5.33;;
4001;SDS011;2015;48.670;9.060;2022-12-07T13:43:00;7.43;;;6.20;;
4001;SDS011;2015;48.670;9.060;2022-12-07T13:45:33;5.70;;;5.10;;
4001;SDS011;2015;48.670;9.060;2022-12-07T13:51:03;5.10;;;4.67;;
4001;SDS011;2015;48.670;9.060;2022-12-07T13:54:00;7.30;;;5.17;;
4001;SDS011;2015;48.670;9.060;2022-12-07T13:56:40;6.80;;;6.20;;
4001;SDS011;2015;48.670;9.060;2022-12-07T13:59:22;7.00;;;5.47;;
4001;SDS011;2015;48.670;9.060;2022-12-07T14:01:56;8.03;;;6.27;;
4001;SDS011;2015;48.670;9.060;2022-12-07T14:04:37;7.63;;;5.50;;
4001;SDS011;2015;48.670;9.060;2022-12-07T14:07:31;7.97;;;5.57;;
4001;SDS011;2015;48.670;9.060;2022-12-07T14:10:03;6.27;;;5.77;;
4001;SDS011;2015;48.670;9.060;2022-12-07T14:12:37;7.00;;;6.40;;
4001;SDS011;2015;48.670;9.060;2022-12-07T14:15:19;5.47;;;5.00;;
4001;SDS011;2015;48.670;9.060;2022-12-07T14:18:25;5.90;;;5.40;;
4001;SDS011;2015;48.670;9.060;2022-12-07T14:21:03;8.53;;;7.67;;
4001;SDS011;2015;48.670;9.060;2022-12-07T14:23:37;6.30;;;5.80;;
4001;SDS011;2015;48.670;9.060;2022-12-07T14:28:46;6.77;;;6.27;;
4001;SDS011;2015;48.670;9.060;2022-12-07T14:31:21;7.33;;;6.50;;
4001;SDS011;2015;48.670;9.060;2022-12-07T14:34:01;5.97;;;5.27;;
4001;SDS011;2015;48.670;9.060;2022-12-07T14:36:32;6.17;;;5.67;;
4001;SDS011;2015;48.670;9.060;2022-12-07T14:39:04;5.87;;;5.47;;
4001;SDS011;2015;48.670;9.060;2022-12-07T14:41:43;6.47;;;5.87;;
4001;SDS011;2015;48.670;9.060;2022-12-07T14:44:24;6.18;;;5.57;;
4001;SDS011;2015;48.670;9.060;2022-12-07T14:47:02;13.73;;;9.50;;
4001;SDS011;2015;48.670;9.060;2022-12-07T14:49:54;12.97;;;7.87;;
4001;SDS011;2015;48.670;9.060;2022-12-07T14:52:27;5.40;;;5.00;;
4001;SDS011;2015;48.670;9.060;2022-12-07T14:55:25;6.33;;;5.80;;
4001;SDS011;2015;48.670;9.060;2022-12-07T14:57:59;5.30;;;4.90;;
4001;SDS011;2015;48.670;9.060;2022-12-07T15:00:31;9.87;;;7.70;;
4001;SDS011;2015;48.670;9.060;2022-12-07T15:03:03;8.50;;;7.10;;
4001;SDS011;2015;48.670;9.060;2022-12-07T15:05:35;6.13;;;5.73;;
4001;SDS011;2015;48.670;9.060;2022-12-07T15:08:11;7.57;;;5.60;;
4001;SDS011;2015;48.670;9.060;2022-12-07T15:10:44;7.57;;;6.77;;
4001;SDS011;2015;48.670;9.060;2022-12-07T15:13:16;6.50;;;5.65;;
4001;SDS011;2015;48.670;9.060;2022-12-07T15:16:08;6.13;;;5.53;;
4001;SDS011;2015;48.670;9.060;2022-12-07T15:18:42;7.07;;;6.30;;
4001;SDS011;2015;48.670;9.060;2022-12-07T15:21:34;5.97;;;5.53;;
4001;SDS011;2015;48.670;9.060;2022-12-07T15:24:06;7.10;;;6.50;;
4001;SDS011;2015;48.670;9.060;2022-12-07T15:26:39;6.97;;;6.17;;
4001;SDS011;2015;48.670;9.060;2022-12-07T15:29:12;6.07;;;5.47;;
4001;SDS011;2015;48.670;9.060;2022-12-07T15:31:52;7.40;;;6.33;;
4001;SDS011;2015;48.670;9.060;2022-12-07T15:34:28;5.47;;;4.97;;
4001;SDS011;2015;48.670;9.060;2022-12-07T15:37:09;62.22;;;30.65;;
4001;SDS011;2015;48.670;9.060;2022-12-07T15:39:41;11.67;;;8.60;;
4001;SDS011;2015;48.670;9.060;2022-12-07T15:42:13;7.10;;;6.50;;
4001;SDS011;2015;48.670;9.060;2022-12-07T15:44:44;6.60;;;6.00;;
4001;SDS011;2015;48.670;9.060;2022-12-07T15:47:39;8.07;;;6.90;;
4001;SDS011;2015;48.670;9.060;2022-12-07T15:50:33;7.70;;;7.10;;
4001;SDS011;2015;48.670;9.060;2022-12-07T15:53:04;14.53;;;6.67;;
4001;SDS011;2015;48.670;9.060;2022-12-07T15:55:40;8.90;;;7.90;;
4001;SDS011;2015;48.670;9.060;2022-12-07T15:58:12;10.87;;;8.20;;
4001;SDS011;2015;48.670;9.060;2022-12-07T16:00:44;11.43;;;8.45;;
4001;SDS011;2015;48.670;9.060;2022-12-07T16:03:16;7.20;;;6.47;;
4001;SDS011;2015;48.670;9.060;2022-12-07T16:05:48;9.60;;;8.63;;
4001;SDS011;2015;48.670;9.060;2022-12-07T16:08:21;11.52;;;7.95;;
4001;SDS011;2015;48.670;9.060;2022-12-07T16:10:53;10.70;;;8.40;;
4001;SDS011;2015;48.670;9.060;2022-12-07T16:13:24;9.30;;;7.30;;
4001;SDS011;2015;48.670;9.060;2022-12-07T16:15:56;11.97;;;9.93;;
4001;SDS011;2015;48.670;9.060;2022-12-07T16:18:28;13.37;;;9.90;;
4001;SDS011;2015;48.670;9.060;2022-12-07T16:21:00;13.33;;;10.23;;
4001;SDS011;2015;48.670;9.060;2022-12-07T16:23:32;13.63;;;10.13;;
4001;SDS011;2015;48.670;9.060;2022-12-07T16:26:07;15.00;;;11.40;;
4001;SDS011;2015;48.670;9.060;2022-12-07T16:28:41;13.70;;;11.10;;
4001;SDS011;2015;48.670;9.060;2022-12-07T16:31:14;15.23;;;9.73;;
4001;SDS011;2015;48.670;9.060;2022-12-07T16:33:48;17.00;;;10.63;;
4001;SDS011;2015;48.670;9.060;2022-12-07T16:36:20;13.53;;;9.40;;
4001;SDS011;2015;48.670;9.060;2022-12-07T16:39:13;13.87;;;11.23;;
4001;SDS011;2015;48.670;9.060;2022-12-07T16:41:45;13.93;;;9.90;;
4001;SDS011;2015;48.670;9.060;2022-12-07T16:44:16;13.10;;;8.80;;
4001;SDS011;2015;48.670;9.060;2022-12-07T16:46:48;11.60;;;10.40;;
4001;SDS011;2015;48.670;9.060;2022-12-07T16:49:20;13.02;;;8.85;;
4001;SDS011;2015;48.670;9.060;2022-12-07T16:51:52;15.40;;;10.60;;
4001;SDS011;2015;48.670;9.060;2022-12-07T16:54:44;12.70;;;10.40;;
4001;SDS011;2015;48.670;9.060;2022-12-07T16:57:16;25.77;;;18.63;;
4001;SDS011;2015;48.670;9.060;2022-12-07T16:59:53;13.00;;;9.93;;
4001;SDS011;2015;48.670;9.060;2022-12-07T17:02:25;13.03;;;9.60;;
4001;SDS011;2015;48.670;9.060;2022-12-07T17:04:57;15.07;;;11.10;;
4001;SDS011;2015;48.670;9.060;2022-12-07T17:07:28;11.03;;;9.93;;
4001;SDS011;2015;48.670;9.060;2022-12-07T17:10:00;13.23;;;10.63;;
4001;SDS011;2015;48.670;9.060;2022-12-07T17:12:32;13.50;;;9.63;;
4001;SDS011;2015;48.670;9.060;2022-12-07T17:15:04;13.60;;;10.30;;
4001;SDS011;2015;48.670;9.060;2022-12-07T17:17:52;24.47;;;18.20;;
4001;SDS011;2015;48.670;9.060;2022-12-07T17:20:26;30.37;;;18.20;;
4001;SDS011;2015;48.670;9.060;2022-12-07T17:22:58;30.33;;;16.10;;
4001;SDS011;2015;48.670;9.060;2022-12-07T17:25:30;19.47;;;13.03;;
4001;SDS011;2015;48.670;9.060;2022-12-07T17:28:02;19.13;;;12.13;;
4001;SDS011;2015;48.670;9.060;2022-12-07T17:30:34;15.77;;;11.07;;
4001;SDS011;2015;48.670;9.060;2022-12-07T17:33:06;14.07;;;10.27;;
4001;SDS011;2015;48.670;9.060;2022-12-07T17:35:37;14.23;;;9.80;;
4001;SDS011;2015;48.670;9.060;2022-12-07T17:38:09;13.77;;;10.17;;
4001;SDS011;2015;48.670;9.060;2022-12-07T17:40:41;17.33;;;11.10;;
4001;SDS011;2015;48.670;9.060;2022-12-07T17:43:13;10.30;;;7.90;;
4001;SDS011;2015;48.670;9.060;2022-12-07T17:45:44;11.37;;;8.50;;
4001;SDS011;2015;48.670;9.060;2022-12-07T17:48:16;16.57;;;12.00;;
4001;SDS011;2015;48.670;9.060;2022-12-07T17:50:48;12.00;;;9.60;;
4001;SDS011;2015;48.670;9.060;2022-12-07T17:53:38;11.20;;;9.37;;
4001;SDS011;2015;48.670;9.060;2022-12-07T17:56:10;10.53;;;8.80;;